createdAt,value
2022-09-24T00:03:31.240Z,4.27
2022-09-24T00:08:33.778Z,4.24
2022-09-24T00:13:36.230Z,3.93
2022-09-24T00:18:38.859Z,4.02
2022-09-24T00:23:41.175Z,3.90
2022-09-24T00:28:43.366Z,3.77
2022-09-24T00:33:45.378Z,3.93
2022-09-24T00:38:56.313Z,3.93
2022-09-24T00:43:59.383Z,3.80
2022-09-24T00:49:11.184Z,3.83
2022-09-24T00:54:24.130Z,3.61
2022-09-24T00:59:28.432Z,3.56
2022-09-24T01:04:30.893Z,3.53
2022-09-24T01:09:34.190Z,3.61
2022-09-24T01:14:45.999Z,3.83
2022-09-24T01:20:15.986Z,3.70
2022-09-24T01:25:30.389Z,3.86
2022-09-24T01:30:38.521Z,3.73
2022-09-24T01:35:45.100Z,4.06
2022-09-24T01:40:48.920Z,3.94
2022-09-24T01:45:52.481Z,3.77
2022-09-24T01:51:09.831Z,3.84
2022-09-24T01:56:38.900Z,3.49
2022-09-24T02:01:51.361Z,3.50
2022-09-24T02:07:02.315Z,3.53
2022-09-24T02:12:07.690Z,3.54
2022-09-24T02:17:12.212Z,3.44
2022-09-24T02:22:14.806Z,3.43
2022-09-24T02:27:18.433Z,3.44
2022-09-24T02:32:23.730Z,3.40
2022-09-24T02:37:26.012Z,3.39
2022-09-24T02:42:28.973Z,3.38
2022-09-24T02:47:31.213Z,3.48
2022-09-24T02:52:33.583Z,3.38
2022-09-24T02:57:36.143Z,3.40
2022-09-24T03:02:38.314Z,3.26
2022-09-24T03:07:40.654Z,3.23
2022-09-24T03:12:44.014Z,3.10
2022-09-24T03:17:46.053Z,3.18
2022-09-24T03:22:52.166Z,3.16
2022-09-24T03:27:54.371Z,2.92
2022-09-24T03:32:56.722Z,2.89
2022-09-24T03:37:58.862Z,2.77
2022-09-24T03:43:00.913Z,2.75
2022-09-24T03:48:03.148Z,2.86
2022-09-24T03:53:05.469Z,2.99
2022-09-24T03:58:07.514Z,2.89
2022-09-24T04:03:10.321Z,2.71
2022-09-24T04:08:12.456Z,3.00
2022-09-24T04:13:15.854Z,3.03
2022-09-24T04:18:19.286Z,3.03
2022-09-24T04:23:21.622Z,3.11
2022-09-24T04:28:24.571Z,3.11
2022-09-24T04:33:26.911Z,3.31
2022-09-24T04:38:29.104Z,3.25
2022-09-24T04:43:31.305Z,3.30
2022-09-24T04:48:34.799Z,3.30
2022-09-24T04:53:37.525Z,3.29
2022-09-24T04:58:40.123Z,3.23
2022-09-24T05:03:42.481Z,3.29
2022-09-24T05:08:44.519Z,3.38
2022-09-24T05:13:46.573Z,3.40
2022-09-24T05:18:48.580Z,3.57
2022-09-24T05:23:50.788Z,3.47
2022-09-24T05:28:53.810Z,3.74
2022-09-24T05:33:56.132Z,3.96
2022-09-24T05:38:58.513Z,3.93
2022-09-24T05:44:00.597Z,4.21
2022-09-24T05:49:02.983Z,4.04
2022-09-24T05:54:05.435Z,4.27
2022-09-24T05:59:07.840Z,5.60
2022-09-24T06:04:12.293Z,14.42
2022-09-24T06:09:14.942Z,21.09
2022-09-24T06:14:16.979Z,24.22
2022-09-24T06:19:19.102Z,25.19
2022-09-24T06:24:21.404Z,26.50
2022-09-24T06:29:23.555Z,25.17
2022-09-24T06:34:25.630Z,26.23
2022-09-24T06:39:27.942Z,24.70
2022-09-24T06:44:29.953Z,26.11
2022-09-24T06:49:34.285Z,24.99
2022-09-24T06:54:36.932Z,26.27
2022-09-24T06:59:39.062Z,26.17
2022-09-24T07:04:41.192Z,26.54
2022-09-24T07:09:43.384Z,26.90
2022-09-24T07:14:45.895Z,25.78
2022-09-24T07:19:48.222Z,25.59
2022-09-24T07:24:50.979Z,23.48
2022-09-24T07:30:11.813Z,23.77
2022-09-24T07:35:14.086Z,24.58
2022-09-24T07:40:16.577Z,23.87
2022-09-24T07:45:19.003Z,22.27
2022-09-24T07:50:25.327Z,23.01
2022-09-24T07:55:27.962Z,22.38
2022-09-24T08:00:29.996Z,24.19
2022-09-24T08:05:33.326Z,24.30
2022-09-24T08:10:35.557Z,24.37
2022-09-24T08:15:37.720Z,23.40
2022-09-24T08:20:41.107Z,24.00
2022-09-24T08:25:43.249Z,23.70
2022-09-24T08:30:45.816Z,24.39
2022-09-24T08:35:48.047Z,24.35
2022-09-24T08:41:27.364Z,23.50
2022-09-24T08:46:59.087Z,24.07
2022-09-24T08:52:20.353Z,24.63
2022-09-24T08:57:22.973Z,23.49
2022-09-24T09:02:43.658Z,24.72
2022-09-24T09:07:56.490Z,23.65
2022-09-24T09:13:24.295Z,23.77
2022-09-24T09:18:46.976Z,24.12
2022-09-24T09:23:52.410Z,23.72
2022-09-24T09:29:00.324Z,23.57
2022-09-24T09:34:11.602Z,23.47
2022-09-24T09:39:30.527Z,24.07
2022-09-24T09:44:41.861Z,24.29
2022-09-24T09:49:47.021Z,24.22
2022-09-24T09:54:50.314Z,23.62
2022-09-24T09:59:56.157Z,23.56
2022-09-24T10:04:59.938Z,23.80
2022-09-24T10:10:19.193Z,24.69
2022-09-24T10:15:24.916Z,23.68
2022-09-24T10:20:33.930Z,23.95
2022-09-24T10:25:36.918Z,23.17
2022-09-24T10:30:51.029Z,23.34
2022-09-24T10:36:24.283Z,22.75
2022-09-24T10:41:28.808Z,22.77
2022-09-24T10:47:05.402Z,22.36
2022-09-24T10:52:29.891Z,21.74
2022-09-24T10:57:39.991Z,21.78
2022-09-24T11:02:42.266Z,21.52
2022-09-24T11:08:02.522Z,20.98
2022-09-24T11:13:19.973Z,20.44
2022-09-24T11:18:42.171Z,20.70
2022-09-24T11:23:59.754Z,20.10
2022-09-24T11:29:08.148Z,20.01
2022-09-24T11:34:16.207Z,20.20
2022-09-24T11:39:45.470Z,20.71
2022-09-24T11:44:57.505Z,20.27
2022-09-24T11:50:24.272Z,20.15
2022-09-24T11:55:37.394Z,20.35
2022-09-24T12:01:06.566Z,20.50
2022-09-24T12:06:20.405Z,20.27
2022-09-24T12:11:37.153Z,20.05
2022-09-24T12:16:42.162Z,19.95
2022-09-24T12:21:47.972Z,20.06
2022-09-24T12:26:52.862Z,20.07
2022-09-24T12:32:30.669Z,20.15
2022-09-24T12:37:41.490Z,20.50
2022-09-24T12:42:46.261Z,19.91
2022-09-24T12:48:14.006Z,19.82
2022-09-24T12:53:24.902Z,20.11
2022-09-24T12:58:43.933Z,19.94
2022-09-24T13:03:47.491Z,20.10
2022-09-24T13:08:50.759Z,20.18
2022-09-24T13:14:21.947Z,20.06
2022-09-24T13:19:37.202Z,19.67
2022-09-24T13:24:49.116Z,19.70
2022-09-24T13:30:15.305Z,19.74
2022-09-24T13:35:26.925Z,19.96
2022-09-24T13:40:35.195Z,19.90
2022-09-24T13:45:43.065Z,20.26
2022-09-24T13:50:52.146Z,20.34
2022-09-24T13:55:59.021Z,20.18
2022-09-24T14:01:25.951Z,19.96
2022-09-24T14:06:42.843Z,19.67
2022-09-24T14:11:52.871Z,19.39
2022-09-24T14:17:06.941Z,19.43
2022-09-24T14:22:20.722Z,19.40
2022-09-24T14:27:25.428Z,19.26
2022-09-24T14:32:33.679Z,19.09
2022-09-24T14:37:41.644Z,19.10
2022-09-24T14:42:54.252Z,19.31
2022-09-24T14:48:06.795Z,19.44
2022-09-24T14:53:21.341Z,19.27
2022-09-24T14:58:31.489Z,19.25
2022-09-24T15:03:54.588Z,19.29
2022-09-24T15:09:00.991Z,19.17
2022-09-24T15:14:17.408Z,19.16
2022-09-24T15:19:29.266Z,18.88
2022-09-24T15:24:31.668Z,18.25
2022-09-24T15:29:34.139Z,17.98
2022-09-24T15:34:36.415Z,17.18
2022-09-24T15:39:39.199Z,17.07
2022-09-24T15:44:43.409Z,16.69
2022-09-24T15:49:45.620Z,16.16
2022-09-24T15:54:47.803Z,15.70
2022-09-24T15:59:50.732Z,15.07
2022-09-24T16:04:53.089Z,14.53
2022-09-24T16:09:55.198Z,13.81
2022-09-24T16:14:59.431Z,13.41
2022-09-24T16:20:02.286Z,13.17
2022-09-24T16:25:05.087Z,12.84
2022-09-24T16:30:07.732Z,12.32
2022-09-24T16:35:13.685Z,11.79
2022-09-24T16:40:16.256Z,11.74
2022-09-24T16:45:18.521Z,11.59
2022-09-24T16:50:23.758Z,11.10
2022-09-24T16:55:25.913Z,10.72
2022-09-24T17:00:28.187Z,10.74
2022-09-24T17:05:32.364Z,10.81
2022-09-24T17:10:34.676Z,10.74
2022-09-24T17:15:37.013Z,10.95
2022-09-24T17:20:39.229Z,10.70
2022-09-24T17:25:41.593Z,10.63
2022-09-24T17:30:43.732Z,10.44
2022-09-24T17:35:57.034Z,10.19
2022-09-24T17:41:03.374Z,9.84
2022-09-24T17:46:11.521Z,9.62
2022-09-24T17:51:23.033Z,9.30
2022-09-24T17:56:27.199Z,9.25
2022-09-24T18:01:36.308Z,9.09
2022-09-24T18:06:40.452Z,8.66
2022-09-24T18:11:45.830Z,8.33
2022-09-24T18:16:49.509Z,8.05
2022-09-24T18:21:51.737Z,7.88
2022-09-24T18:26:53.855Z,7.97
2022-09-24T18:31:55.987Z,8.08
2022-09-24T18:36:58.297Z,7.94
2022-09-24T18:42:00.492Z,7.81
2022-09-24T18:47:03.307Z,7.80
2022-09-24T18:52:06.158Z,7.57
2022-09-24T18:57:08.404Z,7.32
2022-09-24T19:02:14.294Z,7.20
2022-09-24T19:07:16.723Z,7.26
2022-09-24T19:12:19.950Z,7.18
2022-09-24T19:17:22.486Z,7.16
2022-09-24T19:22:24.536Z,7.11
2022-09-24T19:27:26.752Z,7.02
2022-09-24T19:32:28.933Z,7.03
2022-09-24T19:37:31.177Z,6.91
2022-09-24T19:42:33.535Z,6.71
2022-09-24T19:47:35.579Z,6.66
2022-09-24T19:52:37.899Z,6.56
2022-09-24T19:57:40.403Z,6.60
2022-09-24T20:02:42.726Z,6.52
2022-09-24T20:07:45.997Z,6.30
2022-09-24T20:12:51.898Z,6.27
2022-09-24T20:17:56.205Z,6.16
2022-09-24T20:22:58.413Z,6.05
2022-09-24T20:28:00.646Z,6.28
2022-09-24T20:33:02.687Z,6.10
2022-09-24T20:38:05.724Z,6.18
2022-09-24T20:43:08.905Z,5.90
2022-09-24T20:48:12.307Z,6.67
2022-09-24T20:53:21.920Z,6.27
2022-09-24T20:58:24.177Z,5.99
2022-09-24T21:03:43.322Z,5.85
2022-09-24T21:08:47.106Z,5.93
2022-09-24T21:13:51.771Z,6.71
2022-09-24T21:18:57.389Z,6.15
2022-09-24T21:24:01.457Z,6.02
2022-09-24T21:29:09.508Z,5.88
2022-09-24T21:34:13.531Z,5.69
2022-09-24T21:39:18.572Z,6.63
2022-09-24T21:44:43.189Z,6.13
2022-09-24T21:49:48.227Z,5.83
2022-09-24T21:54:50.251Z,5.72
2022-09-24T22:00:01.558Z,5.51
2022-09-24T22:05:07.328Z,5.29
2022-09-24T22:10:10.553Z,4.88
2022-09-24T22:15:12.729Z,4.58
2022-09-24T22:20:14.926Z,4.44
2022-09-24T22:25:17.466Z,4.48
2022-09-24T22:30:19.841Z,4.47
2022-09-24T22:35:43.237Z,4.66
2022-09-24T22:40:45.898Z,4.67
2022-09-24T22:45:48.234Z,4.57
2022-09-24T22:50:50.463Z,4.24
2022-09-24T22:56:07.353Z,4.41
2022-09-24T23:01:17.093Z,4.54
2022-09-24T23:06:21.120Z,4.62
2022-09-24T23:11:29.318Z,4.55
2022-09-24T23:16:38.204Z,4.47
2022-09-24T23:21:40.702Z,4.29
2022-09-24T23:26:44.244Z,4.22
2022-09-24T23:31:46.430Z,4.22
2022-09-24T23:36:48.688Z,4.19
2022-09-24T23:41:51.036Z,4.26
2022-09-24T23:46:53.120Z,4.20
2022-09-24T23:51:55.901Z,4.30
2022-09-24T23:56:58.051Z,4.27
